createdAt,value
2023-02-02T00:02:03.893Z,99417.42
2023-02-02T00:04:36.352Z,99422.31
2023-02-02T00:07:07.410Z,99416.81
2023-02-02T00:09:36.982Z,99425.57
2023-02-02T00:12:07.213Z,99410.09
2023-02-02T00:14:36.994Z,99414.32
2023-02-02T00:17:06.570Z,99414.78
2023-02-02T00:19:36.521Z,99412.26
2023-02-02T00:22:06.865Z,99401.30
2023-02-02T00:24:36.622Z,99419.33
2023-02-02T00:27:06.963Z,99405.13
2023-02-02T00:29:37.518Z,99407.16
2023-02-02T00:32:07.215Z,99427.94
2023-02-02T00:34:37.139Z,99424.52
2023-02-02T00:37:07.360Z,99424.52
2023-02-02T00:39:37.109Z,99428.65
2023-02-02T00:42:06.767Z,99427.81
2023-02-02T00:44:54.472Z,99433.25
2023-02-02T00:47:24.138Z,99423.09
2023-02-02T00:49:54.305Z,99444.80
2023-02-02T00:52:24.082Z,99430.67
2023-02-02T00:54:53.824Z,99433.62
2023-02-02T00:57:23.312Z,99440.70
2023-02-02T00:59:53.068Z,99437.59
2023-02-02T01:02:22.603Z,99434.05
2023-02-02T01:04:52.960Z,99435.48
2023-02-02T01:07:22.824Z,99431.48
2023-02-02T01:09:52.557Z,99434.47
2023-02-02T01:12:22.279Z,99424.86
2023-02-02T01:14:52.343Z,99424.86
2023-02-02T01:17:23.635Z,99424.05
2023-02-02T01:19:53.503Z,99422.42
2023-02-02T01:22:23.194Z,99426.79
2023-02-02T01:24:53.314Z,99431.98
2023-02-02T01:27:24.438Z,99424.19
2023-02-02T01:29:54.503Z,99441.01
2023-02-02T01:32:24.120Z,99441.01
2023-02-02T01:34:53.920Z,99434.08
2023-02-02T01:37:23.455Z,99434.80
2023-02-02T01:39:53.265Z,99435.94
2023-02-02T01:42:24.495Z,99437.42
2023-02-02T01:45:03.603Z,99439.83
2023-02-02T01:47:36.413Z,99433.92
2023-02-02T01:50:09.003Z,99427.98
2023-02-02T01:52:39.672Z,99430.05
2023-02-02T01:55:12.596Z,99430.05
2023-02-02T01:57:51.403Z,99424.52
2023-02-02T02:00:26.518Z,99425.69
2023-02-02T02:03:02.221Z,99430.13
2023-02-02T02:05:38.638Z,99421.39
2023-02-02T02:08:17.093Z,99426.79
2023-02-02T02:10:47.169Z,99426.94
2023-02-02T02:13:17.808Z,99422.87
2023-02-02T02:16:20.318Z,99417.95
2023-02-02T02:19:16.427Z,99412.50
2023-02-02T02:22:24.976Z,99414.47
2023-02-02T02:25:27.424Z,99414.09
2023-02-02T02:28:12.207Z,99408.70
2023-02-02T02:31:15.237Z,99413.19
2023-02-02T02:34:00.097Z,99415.41
2023-02-02T02:36:53.581Z,99408.98
2023-02-02T02:39:29.124Z,99405.00
2023-02-02T02:42:02.308Z,99403.13
2023-02-02T02:44:34.553Z,99405.94
2023-02-02T02:47:04.216Z,99396.78
2023-02-02T02:49:33.965Z,99399.59
2023-02-02T02:52:03.986Z,99392.56
2023-02-02T02:54:38.719Z,99381.08
2023-02-02T02:57:44.097Z,99389.13
2023-02-02T03:00:34.867Z,99397.41
2023-02-02T03:03:24.958Z,99383.44
2023-02-02T03:06:10.196Z,99369.42
2023-02-02T03:08:48.740Z,99369.42
2023-02-02T03:11:18.846Z,99372.88
2023-02-02T03:13:49.416Z,99375.11
2023-02-02T03:16:19.268Z,99373.52
2023-02-02T03:18:49.088Z,99365.03
2023-02-02T03:21:18.680Z,99367.55
2023-02-02T03:23:48.527Z,99361.83
2023-02-02T03:26:18.067Z,99350.47
2023-02-02T03:28:48.403Z,99357.19
2023-02-02T03:31:18.510Z,99352.87
2023-02-02T03:33:48.605Z,99350.81
2023-02-02T03:36:18.344Z,99342.59
2023-02-02T03:38:48.118Z,99342.59
2023-02-02T03:41:17.543Z,99348.39
2023-02-02T03:43:47.632Z,99341.67
2023-02-02T03:46:17.467Z,99328.14
2023-02-02T03:48:47.258Z,99335.42
2023-02-02T03:51:17.212Z,99328.59
2023-02-02T03:53:50.071Z,99317.66
2023-02-02T03:56:19.572Z,99317.66
2023-02-02T03:58:49.306Z,99328.97
2023-02-02T04:01:18.799Z,99333.08
2023-02-02T04:03:50.015Z,99322.44
2023-02-02T04:06:20.532Z,99324.86
2023-02-02T04:08:50.106Z,99322.04
2023-02-02T04:11:19.998Z,99308.20
2023-02-02T04:13:49.820Z,99319.73
2023-02-02T04:16:19.434Z,99322.97
2023-02-02T04:18:49.344Z,99319.24
2023-02-02T04:21:18.864Z,99319.89
2023-02-02T04:23:49.695Z,99311.11
2023-02-02T04:26:19.250Z,99316.36
2023-02-02T04:28:49.300Z,99325.50
2023-02-02T04:31:18.949Z,99321.86
2023-02-02T04:33:48.706Z,99313.63
2023-02-02T04:36:18.129Z,99315.41
2023-02-02T04:38:50.914Z,99314.02
2023-02-02T04:41:21.183Z,99313.25
2023-02-02T04:43:51.313Z,99309.80
2023-02-02T04:46:21.061Z,99313.17
2023-02-02T04:48:51.312Z,99316.06
2023-02-02T04:51:21.042Z,99309.89
2023-02-02T04:53:50.823Z,99307.00
2023-02-02T04:56:20.693Z,99302.80
2023-02-02T04:58:50.468Z,99306.44
2023-02-02T05:01:21.689Z,99286.91
2023-02-02T05:03:50.739Z,99303.45
2023-02-02T05:06:20.634Z,99295.88
2023-02-02T05:08:50.830Z,99295.88
2023-02-02T05:11:22.799Z,99303.70
2023-02-02T05:13:54.722Z,99314.39
2023-02-02T05:16:28.515Z,99308.74
2023-02-02T05:18:59.688Z,99313.70
2023-02-02T05:21:29.932Z,99311.27
2023-02-02T05:24:01.172Z,99319.50
2023-02-02T05:26:31.576Z,99307.25
2023-02-02T05:29:01.094Z,99319.30
2023-02-02T05:31:31.952Z,99317.06
2023-02-02T05:34:01.814Z,99313.23
2023-02-02T05:36:31.621Z,99310.80
2023-02-02T05:39:01.369Z,99325.38
2023-02-02T05:41:31.416Z,99316.03
2023-02-02T05:44:01.981Z,99306.50
2023-02-02T05:46:31.875Z,99303.12
2023-02-02T05:49:03.550Z,99306.78
2023-02-02T05:51:36.287Z,99329.59
2023-02-02T05:54:06.706Z,99315.75
2023-02-02T05:56:36.448Z,99314.13
2023-02-02T05:59:07.475Z,99335.35
2023-02-02T06:01:37.008Z,99336.98
2023-02-02T06:04:07.260Z,99330.99
2023-02-02T06:06:38.276Z,99358.02
2023-02-02T06:09:08.502Z,99341.66
2023-02-02T06:11:39.490Z,99341.66
2023-02-02T06:14:08.934Z,99346.89
2023-02-02T06:16:38.676Z,99361.28
2023-02-02T06:19:08.466Z,99362.03
2023-02-02T06:21:38.199Z,99372.88
2023-02-02T06:24:08.096Z,99379.33
2023-02-02T06:26:38.093Z,99377.01
2023-02-02T06:29:07.972Z,99383.06
2023-02-02T06:31:37.877Z,99383.06
2023-02-02T06:34:08.396Z,99376.54
2023-02-02T06:36:38.166Z,99378.58
2023-02-02T06:39:08.184Z,99387.61
2023-02-02T06:41:38.787Z,99382.03
2023-02-02T06:44:08.643Z,99390.06
2023-02-02T06:46:38.435Z,99400.09
2023-02-02T06:49:08.211Z,99394.62
2023-02-02T06:51:37.944Z,99398.03
2023-02-02T06:54:07.407Z,99412.47
2023-02-02T06:56:37.143Z,99407.23
2023-02-02T06:59:07.031Z,99417.34
2023-02-02T07:01:38.714Z,99410.06
2023-02-02T07:04:08.357Z,99423.59
2023-02-02T07:06:39.592Z,99427.59
2023-02-02T07:09:09.341Z,99439.51
2023-02-02T07:11:44.182Z,99445.94
2023-02-02T07:14:11.150Z,99434.09
2023-02-02T07:16:40.886Z,99447.06
2023-02-02T07:19:10.437Z,99447.06
2023-02-02T07:21:40.166Z,99445.58
2023-02-02T07:24:09.798Z,99451.86
2023-02-02T07:26:39.901Z,99444.46
2023-02-02T07:29:11.898Z,99442.70
2023-02-02T07:31:41.736Z,99452.60
2023-02-02T07:34:11.334Z,99456.81
2023-02-02T07:36:41.066Z,99462.88
2023-02-02T07:39:12.405Z,99466.53
2023-02-02T07:41:43.630Z,99490.45
2023-02-02T07:44:15.986Z,99496.53
2023-02-02T07:46:47.242Z,99483.54
2023-02-02T07:49:20.210Z,99485.63
2023-02-02T07:51:50.000Z,99493.47
2023-02-02T07:54:19.765Z,99509.38
2023-02-02T07:56:49.500Z,99492.17
2023-02-02T07:59:19.334Z,99510.32
2023-02-02T08:01:49.145Z,99524.55
2023-02-02T08:04:19.581Z,99521.55
2023-02-02T08:06:49.602Z,99521.55
2023-02-02T08:09:19.069Z,99542.14
2023-02-02T08:11:48.799Z,99528.20
2023-02-02T08:14:18.547Z,99551.33
2023-02-02T08:16:48.287Z,99554.88
2023-02-02T08:19:17.765Z,99554.88
2023-02-02T08:21:47.495Z,99552.73
2023-02-02T08:24:16.950Z,99554.32
2023-02-02T08:26:46.831Z,99564.78
2023-02-02T08:29:17.422Z,99572.66
2023-02-02T08:31:47.658Z,99567.95
2023-02-02T08:34:17.387Z,99566.67
2023-02-02T08:36:47.183Z,99592.02
2023-02-02T08:39:16.840Z,99592.02
2023-02-02T08:41:46.651Z,99592.86
2023-02-02T08:44:16.973Z,99585.20
2023-02-02T08:46:46.678Z,99586.89
2023-02-02T08:49:16.653Z,99592.77
2023-02-02T08:51:46.395Z,99575.09
2023-02-02T08:54:15.936Z,99600.66
2023-02-02T08:56:45.747Z,99614.57
2023-02-02T08:59:15.211Z,99609.75
2023-02-02T09:01:45.131Z,99611.91
2023-02-02T09:04:19.009Z,99614.48
2023-02-02T09:06:49.010Z,99618.16
2023-02-02T09:09:18.992Z,99622.09
2023-02-02T09:11:49.089Z,99636.88
2023-02-02T09:14:18.847Z,99628.45
2023-02-02T09:16:48.617Z,99621.34
2023-02-02T09:19:18.332Z,99648.88
2023-02-02T09:21:49.628Z,99648.88
2023-02-02T09:24:19.446Z,99668.52
2023-02-02T09:26:49.234Z,99668.52
2023-02-02T09:29:18.834Z,99662.72
2023-02-02T09:31:48.717Z,99663.09
2023-02-02T09:34:19.129Z,99663.09
2023-02-02T09:36:48.675Z,99665.41
2023-02-02T09:39:19.511Z,99680.59
2023-02-02T09:41:54.293Z,99688.93
2023-02-02T09:44:46.036Z,99685.87
2023-02-02T09:47:24.494Z,99686.33
2023-02-02T09:50:00.292Z,99712.91
2023-02-02T09:52:36.236Z,99699.25
2023-02-02T09:55:32.552Z,99712.94
2023-02-02T09:58:17.121Z,99709.83
2023-02-02T10:00:55.986Z,99721.55
2023-02-02T10:03:37.984Z,99728.66
2023-02-02T10:06:37.727Z,99730.05
2023-02-02T10:09:44.440Z,99739.52
2023-02-02T10:12:33.571Z,99745.58
2023-02-02T10:15:13.164Z,99751.15
2023-02-02T10:18:06.812Z,99770.06
2023-02-02T10:20:51.468Z,99770.06
2023-02-02T10:23:35.639Z,99773.94
2023-02-02T10:26:28.357Z,99772.09
2023-02-02T10:29:28.111Z,99771.81
2023-02-02T10:32:17.953Z,99779.85
2023-02-02T10:35:20.224Z,99778.86
2023-02-02T10:38:09.803Z,99780.17
2023-02-02T10:40:59.273Z,99784.03
2023-02-02T10:43:46.524Z,99799.41
2023-02-02T10:46:27.997Z,99799.41
2023-02-02T10:49:17.765Z,99791.72
2023-02-02T10:51:53.252Z,99794.64
2023-02-02T10:54:28.627Z,99805.17
2023-02-02T10:57:01.611Z,99810.58
2023-02-02T10:59:37.963Z,99810.73
2023-02-02T11:02:20.313Z,99803.25
2023-02-02T11:05:00.429Z,99819.73
2023-02-02T11:07:30.145Z,99817.28
2023-02-02T11:09:59.962Z,99821.83
2023-02-02T11:12:37.772Z,99824.66
2023-02-02T11:15:10.398Z,99830.91
2023-02-02T11:17:40.127Z,99835.30
2023-02-02T11:20:12.646Z,99852.47
2023-02-02T11:22:42.452Z,99850.28
2023-02-02T11:25:33.753Z,99855.39
2023-02-02T11:28:20.860Z,99850.97
2023-02-02T11:30:53.805Z,99848.06
2023-02-02T11:33:37.165Z,99854.83
2023-02-02T11:36:21.153Z,99856.05
2023-02-02T11:38:52.378Z,99861.83
2023-02-02T11:41:22.203Z,99856.67
2023-02-02T11:43:56.557Z,99858.15
2023-02-02T11:46:29.091Z,99863.85
2023-02-02T11:49:12.943Z,99861.69
2023-02-02T11:51:44.764Z,99862.94
2023-02-02T11:54:35.442Z,99857.39
2023-02-02T11:57:08.222Z,99857.83
2023-02-02T11:59:43.252Z,99858.80
2023-02-02T12:02:32.743Z,99855.77
2023-02-02T12:05:15.020Z,99855.77
2023-02-02T12:07:45.102Z,99878.51
2023-02-02T12:10:32.993Z,99873.00
2023-02-02T12:13:07.313Z,99881.70
2023-02-02T12:15:54.506Z,99889.73
2023-02-02T12:18:48.074Z,99889.73
2023-02-02T12:21:32.442Z,99892.80
2023-02-02T12:24:25.498Z,99892.85
2023-02-02T12:27:19.192Z,99905.80
2023-02-02T12:30:13.049Z,99905.95
2023-02-02T12:33:06.753Z,99904.72
2023-02-02T12:36:12.478Z,99927.38
2023-02-02T12:39:03.357Z,99918.61
2023-02-02T12:41:44.675Z,99922.63
2023-02-02T12:44:26.107Z,99927.25
2023-02-02T12:46:58.885Z,99928.08
2023-02-02T12:49:40.340Z,99930.69
2023-02-02T12:52:27.585Z,99931.61
2023-02-02T12:55:18.394Z,99924.39
2023-02-02T12:58:09.061Z,99923.09
2023-02-02T13:01:01.188Z,99924.94
2023-02-02T13:03:53.790Z,99924.61
2023-02-02T13:06:35.553Z,99939.82
2023-02-02T13:09:20.007Z,99929.04
2023-02-02T13:11:55.850Z,99934.54
2023-02-02T13:14:34.530Z,99938.13
2023-02-02T13:17:26.862Z,99926.27
2023-02-02T13:19:59.776Z,99929.04
2023-02-02T13:22:38.339Z,99932.66
2023-02-02T13:25:23.111Z,99944.20
2023-02-02T13:27:53.779Z,99941.28
2023-02-02T13:30:35.963Z,99950.37
2023-02-02T13:33:21.157Z,99954.03
2023-02-02T13:36:09.049Z,99965.50
2023-02-02T13:38:40.483Z,99973.35
2023-02-02T13:41:12.674Z,99983.82
2023-02-02T13:43:51.401Z,99982.90
2023-02-02T13:46:44.701Z,99984.20
2023-02-02T13:49:17.553Z,99990.83
2023-02-02T13:52:14.384Z,100006.04
2023-02-02T13:55:09.727Z,100006.12
2023-02-02T13:58:17.382Z,100007.00
2023-02-02T14:00:54.057Z,100016.11
2023-02-02T14:03:41.669Z,100021.42
2023-02-02T14:06:19.934Z,100027.58
2023-02-02T14:08:55.626Z,100024.96
2023-02-02T14:11:36.840Z,100021.95
2023-02-02T14:14:33.159Z,100036.27
2023-02-02T14:17:14.255Z,100034.13
2023-02-02T14:19:49.863Z,100047.34
2023-02-02T14:22:41.018Z,100045.50
2023-02-02T14:25:33.833Z,100051.82
2023-02-02T14:28:06.364Z,100061.41
2023-02-02T14:30:40.131Z,100068.10
2023-02-02T14:33:21.418Z,100068.10
2023-02-02T14:35:54.335Z,100070.57
2023-02-02T14:38:41.716Z,100075.61
2023-02-02T14:41:44.361Z,100082.73
2023-02-02T14:44:14.175Z,100087.75
2023-02-02T14:46:46.025Z,100090.59
2023-02-02T14:49:29.041Z,100098.50
2023-02-02T14:52:02.909Z,100098.50
2023-02-02T14:54:41.933Z,100106.59
2023-02-02T14:57:23.959Z,100104.66
2023-02-02T14:59:55.731Z,100112.64
2023-02-02T15:02:32.671Z,100117.13
2023-02-02T15:05:32.485Z,100122.47
2023-02-02T15:08:17.201Z,100125.22
2023-02-02T15:10:54.411Z,100132.14
2023-02-02T15:13:27.354Z,100141.94
2023-02-02T15:16:07.523Z,100148.34
2023-02-02T15:18:40.720Z,100160.11
2023-02-02T15:21:13.531Z,100168.09
2023-02-02T15:23:45.746Z,100179.60
2023-02-02T15:26:30.631Z,100178.53
2023-02-02T15:29:06.322Z,100192.55
2023-02-02T15:31:45.244Z,100188.77
2023-02-02T15:34:24.861Z,100195.15
2023-02-02T15:36:57.712Z,100204.06
2023-02-02T15:39:37.064Z,100212.56
2023-02-02T15:42:27.639Z,100222.24
2023-02-02T15:44:57.265Z,100235.98
2023-02-02T15:47:32.751Z,100239.24
2023-02-02T15:50:04.640Z,100256.38
2023-02-02T15:52:36.712Z,100259.91
2023-02-02T15:55:10.223Z,100275.31
2023-02-02T15:57:40.539Z,100275.31
2023-02-02T16:00:31.667Z,100291.52
2023-02-02T16:03:19.132Z,100295.89
2023-02-02T16:05:54.799Z,100305.27
2023-02-02T16:08:35.497Z,100313.81
2023-02-02T16:11:26.622Z,100322.90
2023-02-02T16:14:05.129Z,100334.60
2023-02-02T16:16:38.134Z,100346.53
2023-02-02T16:19:10.986Z,100361.11
2023-02-02T16:21:49.314Z,100357.38
2023-02-02T16:24:33.745Z,100371.07
2023-02-02T16:27:06.564Z,100373.98
2023-02-02T16:29:36.939Z,100386.91
2023-02-02T16:32:06.972Z,100401.34
2023-02-02T16:34:46.774Z,100400.66
2023-02-02T16:37:20.305Z,100404.36
2023-02-02T16:39:51.159Z,100407.56
2023-02-02T16:42:29.407Z,100413.72
2023-02-02T16:45:00.992Z,100419.73
2023-02-02T16:47:33.527Z,100427.63
2023-02-02T16:50:12.498Z,100433.63
2023-02-02T16:52:50.979Z,100450.36
2023-02-02T16:55:22.048Z,100454.85
2023-02-02T16:57:52.814Z,100454.85
2023-02-02T17:00:25.690Z,100474.87
2023-02-02T17:03:07.948Z,100472.08
2023-02-02T17:05:46.803Z,100482.88
2023-02-02T17:08:17.880Z,100497.73
2023-02-02T17:10:50.753Z,100503.66
2023-02-02T17:13:36.526Z,100506.32
2023-02-02T17:16:07.013Z,100516.40
2023-02-02T17:18:36.939Z,100521.63
2023-02-02T17:21:08.122Z,100521.63
2023-02-02T17:23:39.391Z,100526.04
2023-02-02T17:26:13.748Z,100534.27
2023-02-02T17:28:44.383Z,100543.75
2023-02-02T17:31:17.194Z,100550.94
2023-02-02T17:33:47.050Z,100545.11
2023-02-02T17:36:16.849Z,100554.45
2023-02-02T17:38:46.634Z,100564.98
2023-02-02T17:41:16.597Z,100557.91
2023-02-02T17:43:46.393Z,100571.52
2023-02-02T17:46:15.953Z,100570.61
2023-02-02T17:48:45.769Z,100576.08
2023-02-02T17:51:18.793Z,100580.14
2023-02-02T17:53:48.583Z,100589.91
2023-02-02T17:56:18.527Z,100594.50
2023-02-02T17:58:48.309Z,100588.48
2023-02-02T18:01:18.520Z,100599.07
2023-02-02T18:03:48.378Z,100606.34
2023-02-02T18:06:17.874Z,100608.71
2023-02-02T18:08:47.657Z,100615.00
2023-02-02T18:11:18.686Z,100618.62
2023-02-02T18:13:48.442Z,100624.61
2023-02-02T18:16:20.845Z,100633.71
2023-02-02T18:18:50.651Z,100636.67
2023-02-02T18:21:21.194Z,100638.46
2023-02-02T18:23:50.992Z,100641.39
2023-02-02T18:26:23.257Z,100646.47
2023-02-02T18:28:53.464Z,100648.25
2023-02-02T18:31:24.094Z,100648.67
2023-02-02T18:33:54.570Z,100657.47
2023-02-02T18:36:24.499Z,100664.97
2023-02-02T18:38:54.378Z,100669.03
2023-02-02T18:41:24.359Z,100675.36
2023-02-02T18:43:56.921Z,100688.87
2023-02-02T18:46:27.097Z,100688.87
2023-02-02T18:48:56.942Z,100701.72
2023-02-02T18:51:27.111Z,100702.00
2023-02-02T18:53:58.426Z,100712.84
2023-02-02T18:56:28.767Z,100722.65
2023-02-02T18:58:59.510Z,100724.36
2023-02-02T19:01:29.936Z,100741.79
2023-02-02T19:04:00.913Z,100741.79
2023-02-02T19:06:48.269Z,100743.67
2023-02-02T19:09:17.852Z,100745.21
2023-02-02T19:11:50.238Z,100750.25
2023-02-02T19:14:27.840Z,100747.31
2023-02-02T19:17:03.206Z,100745.97
2023-02-02T19:19:36.094Z,100749.19
2023-02-02T19:22:09.426Z,100750.53
2023-02-02T19:24:40.966Z,100763.72
2023-02-02T19:27:19.801Z,100759.98
2023-02-02T19:29:52.711Z,100766.62
2023-02-02T19:32:26.862Z,100772.87
2023-02-02T19:35:00.760Z,100778.48
2023-02-02T19:37:33.406Z,100780.68
2023-02-02T19:40:13.438Z,100789.98
2023-02-02T19:42:48.417Z,100795.78
2023-02-02T19:45:29.497Z,100791.47
2023-02-02T19:48:01.460Z,100797.77
2023-02-02T19:50:36.957Z,100802.19
2023-02-02T19:53:18.725Z,100808.44
2023-02-02T19:55:48.952Z,100810.48
2023-02-02T19:58:28.210Z,100813.34
2023-02-02T20:00:59.262Z,100810.41
2023-02-02T20:03:31.028Z,100809.70
2023-02-02T20:06:02.500Z,100807.91
2023-02-02T20:08:44.193Z,100822.47
2023-02-02T20:11:35.720Z,100826.49
2023-02-02T20:14:30.110Z,100832.95
2023-02-02T20:17:05.899Z,100834.77
2023-02-02T20:19:38.167Z,100845.78
2023-02-02T20:22:22.317Z,100852.25
2023-02-02T20:24:53.027Z,100848.83
2023-02-02T20:27:26.392Z,100852.62
2023-02-02T20:30:01.217Z,100854.99
2023-02-02T20:32:34.349Z,100861.70
2023-02-02T20:35:07.182Z,100865.27
2023-02-02T20:37:38.986Z,100868.13
2023-02-02T20:40:14.666Z,100873.69
2023-02-02T20:42:46.092Z,100873.63
2023-02-02T20:45:21.530Z,100870.48
2023-02-02T20:47:51.946Z,100874.50
2023-02-02T20:50:23.346Z,100883.65
2023-02-02T20:52:54.058Z,100883.33
2023-02-02T20:55:23.827Z,100889.13
2023-02-02T20:57:53.473Z,100891.50
2023-02-02T21:00:25.212Z,100893.53
2023-02-02T21:02:55.494Z,100895.34
2023-02-02T21:05:26.009Z,100903.42
2023-02-02T21:07:56.275Z,100913.56
2023-02-02T21:10:27.776Z,100910.16
2023-02-02T21:12:57.711Z,100909.20
2023-02-02T21:15:27.842Z,100912.19
2023-02-02T21:17:57.797Z,100911.92
2023-02-02T21:20:28.064Z,100910.53
2023-02-02T21:22:57.970Z,100906.70
2023-02-02T21:25:28.056Z,100896.08
2023-02-02T21:28:00.351Z,100896.08
2023-02-02T21:30:30.809Z,100897.48
2023-02-02T21:33:00.512Z,100890.78
2023-02-02T21:35:30.573Z,100892.65
2023-02-02T21:38:03.717Z,100890.98
2023-02-02T21:40:34.672Z,100897.69
2023-02-02T21:43:07.275Z,100890.39
2023-02-02T21:45:38.725Z,100883.50
2023-02-02T21:48:19.920Z,100881.86
2023-02-02T21:50:49.790Z,100883.97
2023-02-02T21:53:21.732Z,100886.28
2023-02-02T21:55:57.223Z,100886.88
2023-02-02T21:58:30.188Z,100891.37
2023-02-02T22:01:02.912Z,100890.36
2023-02-02T22:03:38.007Z,100890.85
2023-02-02T22:06:10.840Z,100890.22
2023-02-02T22:08:41.039Z,100896.37
2023-02-02T22:11:30.725Z,100896.49
2023-02-02T22:14:06.231Z,100904.84
2023-02-02T22:16:39.074Z,100902.13
2023-02-02T22:19:26.721Z,100902.08
2023-02-02T22:22:19.439Z,100908.92
2023-02-02T22:24:53.561Z,100901.48
2023-02-02T22:27:25.771Z,100908.47
2023-02-02T22:30:01.467Z,100913.23
2023-02-02T22:32:31.258Z,100908.61
2023-02-02T22:35:01.038Z,100907.66
2023-02-02T22:37:31.132Z,100910.83
2023-02-02T22:40:01.141Z,100914.38
2023-02-02T22:42:31.286Z,100919.05
2023-02-02T22:45:01.071Z,100917.79
2023-02-02T22:47:30.935Z,100924.03
2023-02-02T22:50:00.959Z,100930.62
2023-02-02T22:52:30.571Z,100931.16
2023-02-02T22:55:00.459Z,100929.95
2023-02-02T22:57:30.274Z,100929.95
2023-02-02T23:00:00.454Z,100919.55
2023-02-02T23:02:30.240Z,100925.55
2023-02-02T23:05:00.039Z,100921.12
2023-02-02T23:07:30.070Z,100920.32
2023-02-02T23:10:00.145Z,100926.16
2023-02-02T23:12:30.423Z,100927.66
2023-02-02T23:15:00.074Z,100925.75
2023-02-02T23:17:31.769Z,100940.76
2023-02-02T23:20:04.006Z,100938.05
2023-02-02T23:22:34.031Z,100942.63
2023-02-02T23:25:04.017Z,100951.95
2023-02-02T23:27:33.895Z,100949.46
2023-02-02T23:30:04.323Z,100950.92
2023-02-02T23:32:34.233Z,100953.22
2023-02-02T23:35:03.977Z,100954.23
2023-02-02T23:37:33.909Z,100950.80
2023-02-02T23:40:03.493Z,100948.05
2023-02-02T23:42:33.838Z,100946.17
2023-02-02T23:45:04.120Z,100947.56
2023-02-02T23:47:35.356Z,100946.23
2023-02-02T23:50:07.714Z,100943.41
2023-02-02T23:52:38.300Z,100941.67
2023-02-02T23:55:09.493Z,100938.75
2023-02-02T23:57:39.673Z,100936.57
